sensor_id;sensor_type;location;lat;lon;timestamp;P1;durP1;ratioP1;P2;durP2;ratioP2
54977;SDS011;40873;47.522;19.106;2023-06-14T00:02:03;6.93;;;3.22;;
54977;SDS011;40873;47.522;19.106;2023-06-14T00:04:31;7.03;;;4.07;;
54977;SDS011;40873;47.522;19.106;2023-06-14T00:06:58;7.32;;;4.40;;
54977;SDS011;40873;47.522;19.106;2023-06-14T00:09:29;7.15;;;3.13;;
54977;SDS011;40873;47.522;19.106;2023-06-14T00:11:56;6.75;;;3.70;;
54977;SDS011;40873;47.522;19.106;2023-06-14T00:14:23;9.15;;;3.92;;
54977;SDS011;40873;47.522;19.106;2023-06-14T00:16:50;8.52;;;4.10;;
54977;SDS011;40873;47.522;19.106;2023-06-14T00:19:19;8.40;;;4.15;;
54977;SDS011;40873;47.522;19.106;2023-06-14T00:21:48;6.57;;;3.72;;
54977;SDS011;40873;47.522;19.106;2023-06-14T00:24:19;8.93;;;3.88;;
54977;SDS011;40873;47.522;19.106;2023-06-14T00:26:46;8.38;;;3.90;;
54977;SDS011;40873;47.522;19.106;2023-06-14T00:29:14;8.10;;;4.78;;
54977;SDS011;40873;47.522;19.106;2023-06-14T00:31:40;10.30;;;4.03;;
54977;SDS011;40873;47.522;19.106;2023-06-14T00:34:08;7.97;;;4.40;;
54977;SDS011;40873;47.522;19.106;2023-06-14T00:36:36;7.13;;;3.92;;
54977;SDS011;40873;47.522;19.106;2023-06-14T00:39:03;9.10;;;5.07;;
54977;SDS011;40873;47.522;19.106;2023-06-14T00:41:33;9.50;;;4.68;;
54977;SDS011;40873;47.522;19.106;2023-06-14T00:44:00;8.27;;;4.22;;
54977;SDS011;40873;47.522;19.106;2023-06-14T00:46:27;9.50;;;4.53;;
54977;SDS011;40873;47.522;19.106;2023-06-14T00:48:56;9.32;;;4.25;;
54977;SDS011;40873;47.522;19.106;2023-06-14T00:51:25;8.35;;;4.30;;
54977;SDS011;40873;47.522;19.106;2023-06-14T00:53:53;9.27;;;4.63;;
54977;SDS011;40873;47.522;19.106;2023-06-14T00:56:20;8.55;;;4.60;;
54977;SDS011;40873;47.522;19.106;2023-06-14T00:58:47;10.05;;;5.40;;
54977;SDS011;40873;47.522;19.106;2023-06-14T01:01:14;8.18;;;4.63;;
54977;SDS011;40873;47.522;19.106;2023-06-14T01:03:42;9.15;;;4.80;;
54977;SDS011;40873;47.522;19.106;2023-06-14T01:11:32;7.65;;;4.55;;
54977;SDS011;40873;47.522;19.106;2023-06-14T01:14:12;14.95;;;5.10;;
54977;SDS011;40873;47.522;19.106;2023-06-14T01:16:40;9.90;;;4.55;;
54977;SDS011;40873;47.522;19.106;2023-06-14T01:19:09;11.48;;;5.25;;
54977;SDS011;40873;47.522;19.106;2023-06-14T01:21:43;10.20;;;5.60;;
54977;SDS011;40873;47.522;19.106;2023-06-14T01:24:12;13.18;;;6.25;;
54977;SDS011;40873;47.522;19.106;2023-06-14T01:26:39;8.32;;;5.15;;
54977;SDS011;40873;47.522;19.106;2023-06-14T01:29:13;14.10;;;5.63;;
54977;SDS011;40873;47.522;19.106;2023-06-14T01:31:44;10.15;;;5.47;;
54977;SDS011;40873;47.522;19.106;2023-06-14T01:34:12;11.05;;;5.85;;
54977;SDS011;40873;47.522;19.106;2023-06-14T01:36:40;11.00;;;5.50;;
54977;SDS011;40873;47.522;19.106;2023-06-14T01:39:10;16.77;;;6.20;;
54977;SDS011;40873;47.522;19.106;2023-06-14T01:41:40;12.05;;;5.18;;
54977;SDS011;40873;47.522;19.106;2023-06-14T01:44:09;12.32;;;5.13;;
54977;SDS011;40873;47.522;19.106;2023-06-14T01:46:36;10.32;;;5.47;;
54977;SDS011;40873;47.522;19.106;2023-06-14T01:49:04;15.43;;;5.65;;
54977;SDS011;40873;47.522;19.106;2023-06-14T01:51:31;10.18;;;5.70;;
54977;SDS011;40873;47.522;19.106;2023-06-14T01:53:58;10.52;;;5.72;;
54977;SDS011;40873;47.522;19.106;2023-06-14T01:56:26;11.02;;;5.63;;
54977;SDS011;40873;47.522;19.106;2023-06-14T01:58:53;10.52;;;5.63;;
54977;SDS011;40873;47.522;19.106;2023-06-14T02:01:21;9.27;;;5.50;;
54977;SDS011;40873;47.522;19.106;2023-06-14T02:03:48;10.15;;;5.30;;
54977;SDS011;40873;47.522;19.106;2023-06-14T02:06:17;10.05;;;5.60;;
54977;SDS011;40873;47.522;19.106;2023-06-14T02:08:44;10.60;;;4.85;;
54977;SDS011;40873;47.522;19.106;2023-06-14T02:11:12;9.68;;;4.50;;
54977;SDS011;40873;47.522;19.106;2023-06-14T02:13:39;9.98;;;5.32;;
54977;SDS011;40873;47.522;19.106;2023-06-14T02:16:06;8.57;;;4.90;;
54977;SDS011;40873;47.522;19.106;2023-06-14T02:18:33;11.10;;;5.82;;
54977;SDS011;40873;47.522;19.106;2023-06-14T02:21:01;9.63;;;4.95;;
54977;SDS011;40873;47.522;19.106;2023-06-14T02:23:29;9.77;;;4.88;;
54977;SDS011;40873;47.522;19.106;2023-06-14T02:25:59;10.15;;;5.40;;
54977;SDS011;40873;47.522;19.106;2023-06-14T02:28:27;9.73;;;5.32;;
54977;SDS011;40873;47.522;19.106;2023-06-14T02:30:55;11.32;;;5.93;;
54977;SDS011;40873;47.522;19.106;2023-06-14T02:33:25;10.95;;;5.57;;
54977;SDS011;40873;47.522;19.106;2023-06-14T02:35:52;11.27;;;4.90;;
54977;SDS011;40873;47.522;19.106;2023-06-14T02:38:19;14.32;;;6.03;;
54977;SDS011;40873;47.522;19.106;2023-06-14T02:40:47;12.73;;;6.22;;
54977;SDS011;40873;47.522;19.106;2023-06-14T02:43:14;9.27;;;5.15;;
54977;SDS011;40873;47.522;19.106;2023-06-14T02:45:41;10.00;;;5.10;;
54977;SDS011;40873;47.522;19.106;2023-06-14T02:48:08;10.77;;;5.15;;
54977;SDS011;40873;47.522;19.106;2023-06-14T02:50:36;11.70;;;5.20;;
54977;SDS011;40873;47.522;19.106;2023-06-14T02:53:03;11.65;;;5.57;;
54977;SDS011;40873;47.522;19.106;2023-06-14T02:55:30;7.65;;;4.93;;
54977;SDS011;40873;47.522;19.106;2023-06-14T02:57:58;9.48;;;5.72;;
54977;SDS011;40873;47.522;19.106;2023-06-14T03:00:25;12.18;;;5.88;;
54977;SDS011;40873;47.522;19.106;2023-06-14T03:02:53;11.15;;;5.88;;
54977;SDS011;40873;47.522;19.106;2023-06-14T03:05:21;13.13;;;6.38;;
54977;SDS011;40873;47.522;19.106;2023-06-14T03:07:49;12.18;;;5.82;;
54977;SDS011;40873;47.522;19.106;2023-06-14T03:10:18;13.50;;;6.30;;
54977;SDS011;40873;47.522;19.106;2023-06-14T03:12:48;11.98;;;5.90;;
54977;SDS011;40873;47.522;19.106;2023-06-14T03:15:19;12.60;;;6.05;;
54977;SDS011;40873;47.522;19.106;2023-06-14T03:17:46;10.13;;;5.75;;
54977;SDS011;40873;47.522;19.106;2023-06-14T03:20:16;11.02;;;5.72;;
54977;SDS011;40873;47.522;19.106;2023-06-14T03:22:45;12.77;;;6.07;;
54977;SDS011;40873;47.522;19.106;2023-06-14T03:25:14;10.98;;;5.28;;
54977;SDS011;40873;47.522;19.106;2023-06-14T03:27:42;11.55;;;5.30;;
54977;SDS011;40873;47.522;19.106;2023-06-14T03:30:09;11.80;;;5.95;;
54977;SDS011;40873;47.522;19.106;2023-06-14T03:32:36;9.90;;;5.43;;
54977;SDS011;40873;47.522;19.106;2023-06-14T03:35:04;9.30;;;5.78;;
54977;SDS011;40873;47.522;19.106;2023-06-14T03:37:32;13.52;;;6.05;;
54977;SDS011;40873;47.522;19.106;2023-06-14T03:40:00;11.68;;;6.22;;
54977;SDS011;40873;47.522;19.106;2023-06-14T03:42:33;13.45;;;6.00;;
54977;SDS011;40873;47.522;19.106;2023-06-14T03:45:00;13.23;;;6.82;;
54977;SDS011;40873;47.522;19.106;2023-06-14T03:47:28;9.13;;;4.75;;
54977;SDS011;40873;47.522;19.106;2023-06-14T03:49:55;11.25;;;5.30;;
54977;SDS011;40873;47.522;19.106;2023-06-14T03:52:25;10.00;;;5.63;;
54977;SDS011;40873;47.522;19.106;2023-06-14T03:54:53;11.07;;;5.28;;
54977;SDS011;40873;47.522;19.106;2023-06-14T03:57:23;14.07;;;6.80;;
54977;SDS011;40873;47.522;19.106;2023-06-14T03:59:50;11.00;;;5.88;;
54977;SDS011;40873;47.522;19.106;2023-06-14T04:02:17;17.65;;;7.30;;
54977;SDS011;40873;47.522;19.106;2023-06-14T04:04:45;11.30;;;5.90;;
54977;SDS011;40873;47.522;19.106;2023-06-14T04:07:15;14.15;;;6.55;;
54977;SDS011;40873;47.522;19.106;2023-06-14T04:09:45;11.05;;;6.18;;
54977;SDS011;40873;47.522;19.106;2023-06-14T04:12:15;13.68;;;6.82;;
54977;SDS011;40873;47.522;19.106;2023-06-14T04:14:43;12.15;;;6.43;;
54977;SDS011;40873;47.522;19.106;2023-06-14T04:17:10;10.07;;;5.60;;
54977;SDS011;40873;47.522;19.106;2023-06-14T04:19:37;11.85;;;6.32;;
54977;SDS011;40873;47.522;19.106;2023-06-14T04:22:05;12.88;;;6.72;;
54977;SDS011;40873;47.522;19.106;2023-06-14T04:24:32;14.95;;;5.85;;
54977;SDS011;40873;47.522;19.106;2023-06-14T04:27:01;11.48;;;5.47;;
54977;SDS011;40873;47.522;19.106;2023-06-14T04:29:28;10.23;;;5.55;;
54977;SDS011;40873;47.522;19.106;2023-06-14T04:31:57;14.40;;;5.60;;
54977;SDS011;40873;47.522;19.106;2023-06-14T04:34:25;10.05;;;5.38;;
54977;SDS011;40873;47.522;19.106;2023-06-14T04:36:56;11.02;;;5.15;;
54977;SDS011;40873;47.522;19.106;2023-06-14T04:39:26;10.65;;;5.70;;
54977;SDS011;40873;47.522;19.106;2023-06-14T04:41:54;13.00;;;5.30;;
54977;SDS011;40873;47.522;19.106;2023-06-14T04:44:23;11.70;;;4.82;;
54977;SDS011;40873;47.522;19.106;2023-06-14T04:46:57;11.80;;;5.40;;
54977;SDS011;40873;47.522;19.106;2023-06-14T04:49:25;12.00;;;6.03;;
54977;SDS011;40873;47.522;19.106;2023-06-14T04:51:56;11.32;;;6.07;;
54977;SDS011;40873;47.522;19.106;2023-06-14T04:54:28;10.20;;;5.88;;
54977;SDS011;40873;47.522;19.106;2023-06-14T04:57:01;13.73;;;6.45;;
54977;SDS011;40873;47.522;19.106;2023-06-14T04:59:29;12.23;;;5.95;;
54977;SDS011;40873;47.522;19.106;2023-06-14T05:02:00;12.65;;;5.20;;
54977;SDS011;40873;47.522;19.106;2023-06-14T05:04:31;11.48;;;5.18;;
54977;SDS011;40873;47.522;19.106;2023-06-14T05:06:58;10.75;;;6.13;;
54977;SDS011;40873;47.522;19.106;2023-06-14T05:09:26;14.18;;;6.35;;
54977;SDS011;40873;47.522;19.106;2023-06-14T05:11:53;11.57;;;5.50;;
54977;SDS011;40873;47.522;19.106;2023-06-14T05:14:20;10.98;;;5.72;;
54977;SDS011;40873;47.522;19.106;2023-06-14T05:16:49;13.88;;;6.40;;
54977;SDS011;40873;47.522;19.106;2023-06-14T05:19:16;11.93;;;6.72;;
54977;SDS011;40873;47.522;19.106;2023-06-14T05:21:45;13.90;;;7.05;;
54977;SDS011;40873;47.522;19.106;2023-06-14T05:24:12;11.88;;;5.85;;
54977;SDS011;40873;47.522;19.106;2023-06-14T05:26:41;12.35;;;6.60;;
54977;SDS011;40873;47.522;19.106;2023-06-14T05:29:09;13.10;;;7.13;;
54977;SDS011;40873;47.522;19.106;2023-06-14T05:31:36;10.90;;;6.07;;
54977;SDS011;40873;47.522;19.106;2023-06-14T05:34:06;11.18;;;6.07;;
54977;SDS011;40873;47.522;19.106;2023-06-14T05:36:33;11.18;;;6.72;;
54977;SDS011;40873;47.522;19.106;2023-06-14T05:39:02;10.88;;;5.57;;
54977;SDS011;40873;47.522;19.106;2023-06-14T05:41:32;14.88;;;6.97;;
54977;SDS011;40873;47.522;19.106;2023-06-14T05:44:00;12.18;;;5.93;;
54977;SDS011;40873;47.522;19.106;2023-06-14T05:46:35;13.25;;;6.20;;
54977;SDS011;40873;47.522;19.106;2023-06-14T05:49:02;12.73;;;6.50;;
54977;SDS011;40873;47.522;19.106;2023-06-14T05:51:29;11.00;;;6.15;;
54977;SDS011;40873;47.522;19.106;2023-06-14T05:53:56;14.30;;;5.90;;
54977;SDS011;40873;47.522;19.106;2023-06-14T05:56:23;12.80;;;7.18;;
54977;SDS011;40873;47.522;19.106;2023-06-14T05:58:52;10.90;;;5.45;;
54977;SDS011;40873;47.522;19.106;2023-06-14T06:01:20;10.60;;;5.18;;
54977;SDS011;40873;47.522;19.106;2023-06-14T06:03:47;11.27;;;5.85;;
54977;SDS011;40873;47.522;19.106;2023-06-14T06:06:15;13.07;;;5.90;;
54977;SDS011;40873;47.522;19.106;2023-06-14T06:08:45;9.25;;;4.68;;
54977;SDS011;40873;47.522;19.106;2023-06-14T06:11:13;11.68;;;5.07;;
54977;SDS011;40873;47.522;19.106;2023-06-14T06:13:40;9.10;;;5.35;;
54977;SDS011;40873;47.522;19.106;2023-06-14T06:16:11;16.00;;;5.70;;
54977;SDS011;40873;47.522;19.106;2023-06-14T06:18:38;11.02;;;5.10;;
54977;SDS011;40873;47.522;19.106;2023-06-14T06:21:05;9.57;;;5.28;;
54977;SDS011;40873;47.522;19.106;2023-06-14T06:23:32;10.82;;;5.22;;
54977;SDS011;40873;47.522;19.106;2023-06-14T06:26:00;9.45;;;5.05;;
54977;SDS011;40873;47.522;19.106;2023-06-14T06:28:27;11.85;;;4.97;;
54977;SDS011;40873;47.522;19.106;2023-06-14T06:30:55;8.80;;;4.78;;
54977;SDS011;40873;47.522;19.106;2023-06-14T06:33:22;9.75;;;4.80;;
54977;SDS011;40873;47.522;19.106;2023-06-14T06:35:50;12.55;;;5.25;;
54977;SDS011;40873;47.522;19.106;2023-06-14T06:38:17;10.70;;;5.05;;
54977;SDS011;40873;47.522;19.106;2023-06-14T06:40:45;10.65;;;4.95;;
54977;SDS011;40873;47.522;19.106;2023-06-14T06:43:12;11.02;;;5.50;;
54977;SDS011;40873;47.522;19.106;2023-06-14T06:45:40;11.38;;;5.32;;
54977;SDS011;40873;47.522;19.106;2023-06-14T06:48:08;7.45;;;4.20;;
54977;SDS011;40873;47.522;19.106;2023-06-14T06:50:38;11.43;;;5.25;;
54977;SDS011;40873;47.522;19.106;2023-06-14T06:53:08;9.93;;;4.93;;
54977;SDS011;40873;47.522;19.106;2023-06-14T06:55:35;9.70;;;4.28;;
54977;SDS011;40873;47.522;19.106;2023-06-14T06:58:03;8.30;;;4.70;;
54977;SDS011;40873;47.522;19.106;2023-06-14T07:00:31;9.75;;;4.60;;
54977;SDS011;40873;47.522;19.106;2023-06-14T07:02:58;9.05;;;5.15;;
54977;SDS011;40873;47.522;19.106;2023-06-14T07:05:28;9.63;;;4.28;;
54977;SDS011;40873;47.522;19.106;2023-06-14T07:07:56;6.90;;;3.85;;
54977;SDS011;40873;47.522;19.106;2023-06-14T07:10:24;8.10;;;3.72;;
54977;SDS011;40873;47.522;19.106;2023-06-14T07:12:50;6.57;;;3.78;;
54977;SDS011;40873;47.522;19.106;2023-06-14T07:15:18;9.38;;;4.88;;
54977;SDS011;40873;47.522;19.106;2023-06-14T07:17:44;8.63;;;3.70;;
54977;SDS011;40873;47.522;19.106;2023-06-14T07:20:12;6.53;;;4.03;;
54977;SDS011;40873;47.522;19.106;2023-06-14T07:22:40;10.90;;;4.38;;
54977;SDS011;40873;47.522;19.106;2023-06-14T07:25:09;6.35;;;3.40;;
54977;SDS011;40873;47.522;19.106;2023-06-14T07:27:42;6.20;;;3.45;;
54977;SDS011;40873;47.522;19.106;2023-06-14T07:30:10;9.68;;;4.13;;
54977;SDS011;40873;47.522;19.106;2023-06-14T07:32:38;9.50;;;4.75;;
54977;SDS011;40873;47.522;19.106;2023-06-14T07:35:06;6.85;;;3.50;;
54977;SDS011;40873;47.522;19.106;2023-06-14T07:37:37;7.90;;;3.83;;
54977;SDS011;40873;47.522;19.106;2023-06-14T07:40:07;6.90;;;3.67;;
54977;SDS011;40873;47.522;19.106;2023-06-14T07:42:37;7.60;;;3.50;;
54977;SDS011;40873;47.522;19.106;2023-06-14T07:45:07;11.05;;;3.55;;
54977;SDS011;40873;47.522;19.106;2023-06-14T07:47:35;7.22;;;3.83;;
54977;SDS011;40873;47.522;19.106;2023-06-14T07:50:05;8.38;;;3.65;;
54977;SDS011;40873;47.522;19.106;2023-06-14T07:52:32;7.57;;;3.90;;
54977;SDS011;40873;47.522;19.106;2023-06-14T07:55:03;5.65;;;3.38;;
54977;SDS011;40873;47.522;19.106;2023-06-14T07:57:31;8.43;;;3.97;;
54977;SDS011;40873;47.522;19.106;2023-06-14T07:59:58;7.78;;;4.07;;
54977;SDS011;40873;47.522;19.106;2023-06-14T08:02:28;7.68;;;4.38;;
54977;SDS011;40873;47.522;19.106;2023-06-14T08:04:55;9.52;;;4.35;;
54977;SDS011;40873;47.522;19.106;2023-06-14T08:07:22;7.53;;;3.70;;
54977;SDS011;40873;47.522;19.106;2023-06-14T08:09:49;7.85;;;4.32;;
54977;SDS011;40873;47.522;19.106;2023-06-14T08:12:17;14.30;;;4.85;;
54977;SDS011;40873;47.522;19.106;2023-06-14T08:14:46;10.05;;;4.10;;
54977;SDS011;40873;47.522;19.106;2023-06-14T08:17:20;11.80;;;4.75;;
54977;SDS011;40873;47.522;19.106;2023-06-14T08:19:47;10.23;;;4.15;;
54977;SDS011;40873;47.522;19.106;2023-06-14T08:22:17;9.55;;;3.72;;
54977;SDS011;40873;47.522;19.106;2023-06-14T08:24:45;7.10;;;3.85;;
54977;SDS011;40873;47.522;19.106;2023-06-14T08:27:12;6.95;;;4.05;;
54977;SDS011;40873;47.522;19.106;2023-06-14T08:29:43;6.28;;;3.38;;
54977;SDS011;40873;47.522;19.106;2023-06-14T08:32:10;8.02;;;4.32;;
54977;SDS011;40873;47.522;19.106;2023-06-14T08:34:38;5.97;;;3.17;;
54977;SDS011;40873;47.522;19.106;2023-06-14T08:37:05;11.18;;;4.75;;
54977;SDS011;40873;47.522;19.106;2023-06-14T08:39:33;10.25;;;3.80;;
54977;SDS011;40873;47.522;19.106;2023-06-14T08:42:01;9.43;;;3.83;;
54977;SDS011;40873;47.522;19.106;2023-06-14T08:44:30;6.10;;;3.55;;
54977;SDS011;40873;47.522;19.106;2023-06-14T08:46:57;6.90;;;3.80;;
54977;SDS011;40873;47.522;19.106;2023-06-14T08:49:26;8.52;;;4.13;;
54977;SDS011;40873;47.522;19.106;2023-06-14T08:51:56;7.90;;;4.55;;
54977;SDS011;40873;47.522;19.106;2023-06-14T08:54:27;7.35;;;4.13;;
54977;SDS011;40873;47.522;19.106;2023-06-14T08:57:11;11.00;;;4.78;;
54977;SDS011;40873;47.522;19.106;2023-06-14T08:59:45;10.13;;;4.03;;
54977;SDS011;40873;47.522;19.106;2023-06-14T09:04:47;7.93;;;3.63;;
54977;SDS011;40873;47.522;19.106;2023-06-14T09:07:16;12.88;;;3.33;;
54977;SDS011;40873;47.522;19.106;2023-06-14T09:09:43;8.07;;;3.47;;
54977;SDS011;40873;47.522;19.106;2023-06-14T09:12:31;6.38;;;3.17;;
54977;SDS011;40873;47.522;19.106;2023-06-14T09:14:58;7.78;;;3.65;;
54977;SDS011;40873;47.522;19.106;2023-06-14T09:17:26;7.05;;;3.65;;
54977;SDS011;40873;47.522;19.106;2023-06-14T09:19:55;10.95;;;2.97;;
54977;SDS011;40873;47.522;19.106;2023-06-14T09:22:22;19.60;;;4.00;;
54977;SDS011;40873;47.522;19.106;2023-06-14T09:24:49;6.18;;;3.58;;
54977;SDS011;40873;47.522;19.106;2023-06-14T09:27:16;6.90;;;3.63;;
54977;SDS011;40873;47.522;19.106;2023-06-14T09:29:44;8.30;;;3.92;;
54977;SDS011;40873;47.522;19.106;2023-06-14T09:32:10;9.38;;;4.15;;
54977;SDS011;40873;47.522;19.106;2023-06-14T09:34:38;8.93;;;4.22;;
54977;SDS011;40873;47.522;19.106;2023-06-14T09:37:05;5.72;;;3.08;;
54977;SDS011;40873;47.522;19.106;2023-06-14T09:39:34;5.93;;;3.97;;
54977;SDS011;40873;47.522;19.106;2023-06-14T09:42:01;6.63;;;2.92;;
54977;SDS011;40873;47.522;19.106;2023-06-14T09:44:46;7.10;;;3.00;;
54977;SDS011;40873;47.522;19.106;2023-06-14T09:47:15;7.57;;;2.78;;
54977;SDS011;40873;47.522;19.106;2023-06-14T09:49:43;7.47;;;2.85;;
54977;SDS011;40873;47.522;19.106;2023-06-14T09:52:10;5.10;;;3.17;;
54977;SDS011;40873;47.522;19.106;2023-06-14T09:54:45;9.23;;;2.75;;
54977;SDS011;40873;47.522;19.106;2023-06-14T09:57:14;4.60;;;2.65;;
54977;SDS011;40873;47.522;19.106;2023-06-14T09:59:43;8.88;;;2.92;;
54977;SDS011;40873;47.522;19.106;2023-06-14T10:05:05;8.90;;;3.08;;
54977;SDS011;40873;47.522;19.106;2023-06-14T10:07:39;4.88;;;2.75;;
54977;SDS011;40873;47.522;19.106;2023-06-14T10:10:22;9.57;;;3.03;;
54977;SDS011;40873;47.522;19.106;2023-06-14T10:12:49;5.93;;;2.45;;
54977;SDS011;40873;47.522;19.106;2023-06-14T10:15:40;8.60;;;3.45;;
54977;SDS011;40873;47.522;19.106;2023-06-14T10:18:31;7.03;;;2.83;;
54977;SDS011;40873;47.522;19.106;2023-06-14T10:23:54;4.82;;;2.10;;
54977;SDS011;40873;47.522;19.106;2023-06-14T10:26:24;5.30;;;2.20;;
54977;SDS011;40873;47.522;19.106;2023-06-14T10:29:07;4.60;;;2.05;;
54977;SDS011;40873;47.522;19.106;2023-06-14T10:34:14;4.63;;;2.00;;
54977;SDS011;40873;47.522;19.106;2023-06-14T10:42:08;5.57;;;2.00;;
54977;SDS011;40873;47.522;19.106;2023-06-14T10:47:26;6.80;;;2.30;;
54977;SDS011;40873;47.522;19.106;2023-06-14T10:49:54;3.10;;;2.17;;
54977;SDS011;40873;47.522;19.106;2023-06-14T10:52:32;6.68;;;2.60;;
54977;SDS011;40873;47.522;19.106;2023-06-14T10:55:02;5.18;;;2.35;;
54977;SDS011;40873;47.522;19.106;2023-06-14T10:57:36;5.15;;;2.40;;
54977;SDS011;40873;47.522;19.106;2023-06-14T11:00:24;4.82;;;2.25;;
54977;SDS011;40873;47.522;19.106;2023-06-14T11:05:51;4.53;;;2.53;;
54977;SDS011;40873;47.522;19.106;2023-06-14T11:08:40;6.53;;;2.53;;
54977;SDS011;40873;47.522;19.106;2023-06-14T11:11:32;5.55;;;2.55;;
54977;SDS011;40873;47.522;19.106;2023-06-14T11:14:05;4.47;;;2.80;;
54977;SDS011;40873;47.522;19.106;2023-06-14T11:16:35;3.20;;;2.20;;
54977;SDS011;40873;47.522;19.106;2023-06-14T11:19:03;4.32;;;2.50;;
54977;SDS011;40873;47.522;19.106;2023-06-14T11:21:31;4.45;;;2.40;;
54977;SDS011;40873;47.522;19.106;2023-06-14T11:24:00;8.93;;;2.60;;
54977;SDS011;40873;47.522;19.106;2023-06-14T11:26:28;4.70;;;2.22;;
54977;SDS011;40873;47.522;19.106;2023-06-14T11:29:00;5.78;;;2.58;;
54977;SDS011;40873;47.522;19.106;2023-06-14T11:31:30;4.15;;;2.30;;
54977;SDS011;40873;47.522;19.106;2023-06-14T11:33:58;5.45;;;2.17;;
54977;SDS011;40873;47.522;19.106;2023-06-14T11:36:29;7.32;;;2.72;;
54977;SDS011;40873;47.522;19.106;2023-06-14T11:39:01;6.85;;;2.25;;
54977;SDS011;40873;47.522;19.106;2023-06-14T11:41:37;4.30;;;2.45;;
54977;SDS011;40873;47.522;19.106;2023-06-14T11:44:05;6.63;;;2.60;;
54977;SDS011;40873;47.522;19.106;2023-06-14T11:46:33;4.72;;;2.15;;
54977;SDS011;40873;47.522;19.106;2023-06-14T11:49:01;4.30;;;2.38;;
54977;SDS011;40873;47.522;19.106;2023-06-14T11:51:34;3.83;;;2.50;;
54977;SDS011;40873;47.522;19.106;2023-06-14T11:54:04;5.43;;;2.13;;
54977;SDS011;40873;47.522;19.106;2023-06-14T11:56:36;3.72;;;2.00;;
54977;SDS011;40873;47.522;19.106;2023-06-14T11:59:03;4.90;;;2.50;;
54977;SDS011;40873;47.522;19.106;2023-06-14T12:01:35;7.85;;;3.55;;
54977;SDS011;40873;47.522;19.106;2023-06-14T12:04:05;3.30;;;2.40;;
54977;SDS011;40873;47.522;19.106;2023-06-14T12:06:32;5.20;;;2.65;;
54977;SDS011;40873;47.522;19.106;2023-06-14T12:09:02;4.93;;;2.40;;
54977;SDS011;40873;47.522;19.106;2023-06-14T12:11:35;6.32;;;2.55;;
54977;SDS011;40873;47.522;19.106;2023-06-14T12:14:03;4.45;;;2.28;;
54977;SDS011;40873;47.522;19.106;2023-06-14T12:16:32;4.72;;;2.55;;
54977;SDS011;40873;47.522;19.106;2023-06-14T12:19:09;3.97;;;2.15;;
54977;SDS011;40873;47.522;19.106;2023-06-14T12:21:46;4.82;;;2.22;;
54977;SDS011;40873;47.522;19.106;2023-06-14T12:24:18;4.72;;;2.45;;
54977;SDS011;40873;47.522;19.106;2023-06-14T12:26:48;7.38;;;3.00;;
54977;SDS011;40873;47.522;19.106;2023-06-14T12:29:19;3.75;;;2.55;;
54977;SDS011;40873;47.522;19.106;2023-06-14T12:31:46;5.07;;;2.78;;
54977;SDS011;40873;47.522;19.106;2023-06-14T12:34:16;6.03;;;2.60;;
54977;SDS011;40873;47.522;19.106;2023-06-14T12:36:46;3.33;;;2.40;;
54977;SDS011;40873;47.522;19.106;2023-06-14T12:39:17;5.65;;;3.05;;
54977;SDS011;40873;47.522;19.106;2023-06-14T12:41:45;3.75;;;2.45;;
54977;SDS011;40873;47.522;19.106;2023-06-14T12:44:13;4.90;;;2.20;;
54977;SDS011;40873;47.522;19.106;2023-06-14T12:46:40;3.65;;;2.60;;
54977;SDS011;40873;47.522;19.106;2023-06-14T12:49:12;3.90;;;2.05;;
54977;SDS011;40873;47.522;19.106;2023-06-14T12:51:39;4.80;;;2.30;;
54977;SDS011;40873;47.522;19.106;2023-06-14T12:54:07;5.47;;;2.15;;
54977;SDS011;40873;47.522;19.106;2023-06-14T12:56:37;4.95;;;2.17;;
54977;SDS011;40873;47.522;19.106;2023-06-14T12:59:05;5.00;;;2.75;;
54977;SDS011;40873;47.522;19.106;2023-06-14T13:01:32;3.63;;;2.25;;
54977;SDS011;40873;47.522;19.106;2023-06-14T13:04:06;5.82;;;2.30;;
54977;SDS011;40873;47.522;19.106;2023-06-14T13:06:33;5.20;;;2.30;;
54977;SDS011;40873;47.522;19.106;2023-06-14T13:09:01;4.53;;;2.55;;
54977;SDS011;40873;47.522;19.106;2023-06-14T13:11:28;4.20;;;2.30;;
54977;SDS011;40873;47.522;19.106;2023-06-14T13:13:56;5.38;;;2.30;;
54977;SDS011;40873;47.522;19.106;2023-06-14T13:16:23;2.85;;;1.98;;
54977;SDS011;40873;47.522;19.106;2023-06-14T13:18:50;4.13;;;1.92;;
54977;SDS011;40873;47.522;19.106;2023-06-14T13:21:17;6.82;;;2.42;;
54977;SDS011;40873;47.522;19.106;2023-06-14T13:23:47;7.35;;;2.38;;
54977;SDS011;40873;47.522;19.106;2023-06-14T13:26:14;3.88;;;2.17;;
54977;SDS011;40873;47.522;19.106;2023-06-14T13:28:44;4.50;;;2.42;;
54977;SDS011;40873;47.522;19.106;2023-06-14T13:31:14;3.38;;;2.17;;
54977;SDS011;40873;47.522;19.106;2023-06-14T13:33:41;5.72;;;2.03;;
54977;SDS011;40873;47.522;19.106;2023-06-14T13:36:08;3.63;;;2.22;;
54977;SDS011;40873;47.522;19.106;2023-06-14T13:38:38;3.67;;;2.15;;
54977;SDS011;40873;47.522;19.106;2023-06-14T13:41:05;5.20;;;2.25;;
54977;SDS011;40873;47.522;19.106;2023-06-14T13:43:32;5.10;;;2.83;;
54977;SDS011;40873;47.522;19.106;2023-06-14T13:45:59;3.95;;;1.90;;
54977;SDS011;40873;47.522;19.106;2023-06-14T13:48:30;6.13;;;2.22;;
54977;SDS011;40873;47.522;19.106;2023-06-14T13:50:59;3.83;;;2.20;;
54977;SDS011;40873;47.522;19.106;2023-06-14T13:53:27;4.05;;;2.22;;
54977;SDS011;40873;47.522;19.106;2023-06-14T13:55:54;4.97;;;1.90;;
54977;SDS011;40873;47.522;19.106;2023-06-14T13:58:21;8.18;;;2.03;;
54977;SDS011;40873;47.522;19.106;2023-06-14T14:00:50;3.58;;;2.08;;
54977;SDS011;40873;47.522;19.106;2023-06-14T14:03:21;3.40;;;2.10;;
54977;SDS011;40873;47.522;19.106;2023-06-14T14:05:48;6.28;;;1.92;;
54977;SDS011;40873;47.522;19.106;2023-06-14T14:08:18;8.15;;;2.75;;
54977;SDS011;40873;47.522;19.106;2023-06-14T14:10:46;6.22;;;2.10;;
54977;SDS011;40873;47.522;19.106;2023-06-14T14:13:15;4.07;;;2.13;;
54977;SDS011;40873;47.522;19.106;2023-06-14T14:15:42;4.28;;;2.33;;
54977;SDS011;40873;47.522;19.106;2023-06-14T14:18:09;4.05;;;1.90;;
54977;SDS011;40873;47.522;19.106;2023-06-14T14:20:36;3.53;;;2.00;;
54977;SDS011;40873;47.522;19.106;2023-06-14T14:23:03;3.50;;;1.77;;
54977;SDS011;40873;47.522;19.106;2023-06-14T14:25:31;6.60;;;2.63;;
54977;SDS011;40873;47.522;19.106;2023-06-14T14:27:58;3.75;;;2.22;;
54977;SDS011;40873;47.522;19.106;2023-06-14T14:30:25;4.60;;;2.65;;
54977;SDS011;40873;47.522;19.106;2023-06-14T14:32:53;3.72;;;1.92;;
54977;SDS011;40873;47.522;19.106;2023-06-14T14:35:20;4.75;;;2.25;;
54977;SDS011;40873;47.522;19.106;2023-06-14T14:37:51;3.97;;;2.65;;
54977;SDS011;40873;47.522;19.106;2023-06-14T14:40:18;4.32;;;2.17;;
54977;SDS011;40873;47.522;19.106;2023-06-14T14:42:48;5.18;;;2.60;;
54977;SDS011;40873;47.522;19.106;2023-06-14T14:45:15;5.30;;;2.40;;
54977;SDS011;40873;47.522;19.106;2023-06-14T14:47:43;3.65;;;1.85;;
54977;SDS011;40873;47.522;19.106;2023-06-14T14:50:10;2.95;;;1.67;;
54977;SDS011;40873;47.522;19.106;2023-06-14T14:52:37;3.67;;;1.80;;
54977;SDS011;40873;47.522;19.106;2023-06-14T14:55:04;5.80;;;2.08;;
54977;SDS011;40873;47.522;19.106;2023-06-14T14:57:32;3.65;;;2.05;;
54977;SDS011;40873;47.522;19.106;2023-06-14T14:59:59;5.03;;;2.30;;
54977;SDS011;40873;47.522;19.106;2023-06-14T15:02:27;4.95;;;2.00;;
54977;SDS011;40873;47.522;19.106;2023-06-14T15:04:54;6.25;;;2.17;;
54977;SDS011;40873;47.522;19.106;2023-06-14T15:07:27;3.95;;;2.10;;
54977;SDS011;40873;47.522;19.106;2023-06-14T15:09:54;6.38;;;2.10;;